Time;durP1;ratioP1;P1;durP2;ratioP2;P2;SDS_P1;SDS_P2;PMS_P1;PMS_P2;Temp;Humidity;BMP_temperature;BMP_pressure;BME280_temperature;BME280_humidity;BME280_pressure;Samples;Min_cycle;Max_cycle;Signal;HPM_P1;HPM_P2
2022/09/26 00:01:26;;;;;;;4.47;1.60;;;14.70;99.90;;;;;;5052592;28;20193;-81
2022/09/26 00:03:55;;;;;;;4.27;2.03;;;14.70;99.90;;;;;;5052964;28;20293;-82
2022/09/26 00:06:23;;;;;;;5.83;1.90;;;14.70;99.90;;;;;;5034794;28;20223;-81
2022/09/26 00:08:51;;;;;;;4.43;1.70;;;14.70;99.90;;;;;;5032878;28;20290;-83
2022/09/26 00:11:20;;;;;;;4.80;1.80;;;14.70;99.90;;;;;;5033642;28;20205;-82
2022/09/26 00:13:50;;;;;;;6.33;1.80;;;14.70;99.90;;;;;;5033364;28;20213;-79
2022/09/26 00:16:18;;;;;;;6.13;1.70;;;14.70;99.90;;;;;;5034019;28;20205;-82
2022/09/26 00:18:49;;;;;;;4.97;1.60;;;14.70;99.90;;;;;;5032863;28;20201;-82
2022/09/26 00:21:16;;;;;;;8.47;1.90;;;14.70;99.90;;;;;;5032319;28;20587;-84
2022/09/26 00:23:43;;;;;;;4.80;1.80;;;14.70;99.90;;;;;;5043759;28;20305;-83
2022/09/26 00:26:11;;;;;;;6.30;2.10;;;14.70;99.90;;;;;;5052346;28;20312;-81
2022/09/26 00:28:38;;;;;;;8.90;2.53;;;14.70;99.90;;;;;;5040615;28;20702;-82
2022/09/26 00:31:07;;;;;;;3.13;1.60;;;14.70;99.90;;;;;;5032755;28;20325;-82
2022/09/26 00:33:34;;;;;;;5.43;2.07;;;14.80;99.90;;;;;;5033091;28;20285;-84
2022/09/26 00:36:02;;;;;;;6.40;2.20;;;14.80;99.90;;;;;;5032579;28;20195;-81
2022/09/26 00:38:29;;;;;;;8.17;2.77;;;14.70;99.90;;;;;;5032653;28;20518;-81
2022/09/26 00:40:57;;;;;;;7.63;2.50;;;14.70;99.90;;;;;;5032245;28;20463;-83
2022/09/26 00:43:29;;;;;;;4.57;2.27;;;14.70;99.90;;;;;;5032283;28;20212;-80
2022/09/26 00:45:59;;;;;;;7.77;2.60;;;14.80;99.90;;;;;;5033631;28;20224;-81
2022/09/26 00:48:28;;;;;;;10.03;2.87;;;14.80;99.90;;;;;;5051889;28;20263;-79
2022/09/26 00:50:55;;;;;;;10.17;3.00;;;14.70;99.90;;;;;;5051701;28;20206;-81
2022/09/26 00:53:28;;;;;;;6.93;2.70;;;14.70;99.90;;;;;;5056675;28;20276;-82
2022/09/26 00:55:59;;;;;;;9.03;2.57;;;14.80;99.90;;;;;;5055899;28;20194;-81
2022/09/26 00:58:30;;;;;;;8.07;2.13;;;14.80;99.90;;;;;;5056152;28;20190;-82
2022/09/26 01:00:59;;;;;;;6.87;2.83;;;14.80;99.90;;;;;;5056733;28;20186;-82
2022/09/26 01:03:27;;;;;;;7.67;2.80;;;14.80;99.90;;;;;;5055774;28;20738;-84
2022/09/26 01:05:55;;;;;;;8.63;2.87;;;14.70;99.90;;;;;;5057075;28;20221;-82
2022/09/26 01:08:31;;;;;;;8.37;2.00;;;14.80;99.90;;;;;;5056494;28;20285;-82
2022/09/26 01:10:59;;;;;;;6.47;1.67;;;14.80;99.90;;;;;;5048512;28;20210;-82
2022/09/26 01:13:27;;;;;;;6.37;1.70;;;14.80;99.90;;;;;;5045192;28;20568;-78
2022/09/26 01:15:54;;;;;;;7.23;1.60;;;14.80;99.90;;;;;;5056101;28;20198;-79
2022/09/26 01:18:21;;;;;;;3.13;1.70;;;14.70;99.90;;;;;;5055562;28;20280;-85
2022/09/26 01:20:52;;;;;;;5.97;1.77;;;14.80;99.90;;;;;;5055720;28;20685;-82
2022/09/26 01:23:54;;;;;;;8.13;2.03;;;14.80;99.90;;;;;;5056445;28;20198;-83
2022/09/26 01:26:48;;;;;;;3.17;1.20;;;14.70;99.90;;;;;;5056639;28;20222;-83
2022/09/26 01:29:51;;;;;;;5.53;1.20;;;14.60;99.90;;;;;;5047048;28;20229;-84
2022/09/26 01:35:20;;;;;;;7.00;2.00;;;14.40;99.90;;;;;;5038220;28;20754;-84
2022/09/26 01:38:00;;;;;;;5.13;2.13;;;14.30;99.90;;;;;;5055995;28;20587;-83
2022/09/26 01:40:36;;;;;;;2.23;1.30;;;14.30;99.90;;;;;;5056018;28;20209;-83
2022/09/26 01:43:12;;;;;;;2.87;1.47;;;14.20;99.90;;;;;;5036237;28;20194;-83
2022/09/26 01:45:46;;;;;;;5.60;1.30;;;14.20;99.90;;;;;;5037648;28;20677;-86
2022/09/26 01:48:19;;;;;;;3.63;1.00;;;14.20;99.90;;;;;;5037593;28;20626;-86
2022/09/26 01:50:51;;;;;;;2.20;1.30;;;14.30;99.90;;;;;;5036782;28;20193;-82
2022/09/26 01:53:22;;;;;;;7.10;1.60;;;14.30;99.90;;;;;;5036669;28;20221;-85
2022/09/26 01:55:54;;;;;;;11.03;2.03;;;14.30;99.90;;;;;;5036659;28;20199;-83
2022/09/26 01:58:27;;;;;;;3.70;1.60;;;14.40;99.90;;;;;;5050782;28;20535;-85
2022/09/26 02:00:57;;;;;;;2.93;1.10;;;14.40;99.90;;;;;;5056451;28;20348;-83
2022/09/26 02:03:30;;;;;;;3.17;1.43;;;14.40;99.90;;;;;;5055208;28;20202;-82
2022/09/26 02:06:00;;;;;;;7.67;1.50;;;14.40;99.90;;;;;;5055293;28;20272;-80
2022/09/26 02:08:33;;;;;;;6.93;1.97;;;14.50;99.90;;;;;;5045048;28;20230;-84
2022/09/26 02:11:05;;;;;;;6.93;1.50;;;14.50;99.90;;;;;;5040894;28;20233;-81
2022/09/26 02:13:37;;;;;;;6.63;1.50;;;14.60;99.90;;;;;;5055541;28;20578;-85
2022/09/26 02:16:08;;;;;;;7.70;1.90;;;14.60;99.90;;;;;;5055729;28;20558;-83
2022/09/26 02:18:40;;;;;;;5.27;2.20;;;14.60;99.90;;;;;;5051914;28;20282;-85
2022/09/26 02:21:13;;;;;;;4.23;1.20;;;14.70;99.90;;;;;;5036515;28;20195;-86
2022/09/26 02:23:39;;;;;;;8.00;1.40;;;14.60;99.90;;;;;;5035737;28;20199;-81
2022/09/26 02:26:07;;;;;;;3.50;1.50;;;14.70;99.90;;;;;;5035051;28;20657;-83
2022/09/26 02:28:34;;;;;;;7.23;2.27;;;14.70;99.90;;;;;;5049758;28;20650;-86
2022/09/26 02:31:02;;;;;;;5.53;1.37;;;14.70;99.90;;;;;;5055532;28;20336;-82
2022/09/26 02:33:30;;;;;;;2.57;1.30;;;14.70;99.90;;;;;;5054738;28;20228;-84
2022/09/26 02:35:58;;;;;;;6.57;1.77;;;14.80;99.90;;;;;;5055174;28;20555;-83
2022/09/26 02:38:28;;;;;;;5.00;1.63;;;14.70;99.90;;;;;;5054490;28;20206;-83
2022/09/26 02:41:01;;;;;;;6.20;1.40;;;14.80;99.90;;;;;;5055715;28;20288;-81
2022/09/26 02:43:42;;;;;;;7.03;1.70;;;14.70;99.90;;;;;;5049006;28;20217;-81
2022/09/26 02:46:38;;;;;;;5.97;1.60;;;14.80;99.90;;;;;;5034598;28;20222;-84
2022/09/26 02:49:17;;;;;;;4.20;1.60;;;14.80;99.90;;;;;;5031417;28;20218;-82
2022/09/26 02:52:02;;;;;;;4.73;1.77;;;14.80;99.90;;;;;;5038123;28;20557;-84
2022/09/26 02:54:36;;;;;;;6.57;2.00;;;14.80;99.90;;;;;;5044799;28;20727;-85
2022/09/26 02:57:12;;;;;;;4.63;1.60;;;14.80;99.90;;;;;;5055956;28;20186;-86
2022/09/26 02:59:49;;;;;;;6.30;2.30;;;14.80;99.90;;;;;;5055512;28;20232;-81
2022/09/26 03:02:20;;;;;;;5.73;1.63;;;14.80;99.90;;;;;;5054149;28;20186;-78
2022/09/26 03:04:50;;;;;;;4.33;1.50;;;14.80;99.90;;;;;;5043255;28;20229;-85
2022/09/26 03:07:26;;;;;;;7.03;1.93;;;14.80;99.90;;;;;;5034835;28;20211;-83
2022/09/26 03:09:56;;;;;;;9.77;1.63;;;14.80;99.90;;;;;;5041691;28;20678;-83
2022/09/26 03:12:25;;;;;;;5.00;1.43;;;14.90;99.90;;;;;;5053907;28;20199;-84
2022/09/26 03:14:53;;;;;;;5.10;1.50;;;14.80;99.90;;;;;;5053970;28;20293;-79
2022/09/26 03:17:22;;;;;;;7.30;1.80;;;14.80;99.90;;;;;;5054357;28;20541;-82
2022/09/26 03:19:54;;;;;;;5.60;1.50;;;14.80;99.90;;;;;;5053872;28;20198;-83
2022/09/26 03:22:22;;;;;;;6.23;1.77;;;14.80;99.90;;;;;;5053882;28;20247;-77
2022/09/26 03:24:49;;;;;;;7.43;1.77;;;14.80;99.90;;;;;;5053248;28;20202;-82
2022/09/26 03:27:17;;;;;;;4.03;1.50;;;14.80;99.90;;;;;;5033861;28;20634;-80
2022/09/26 03:29:44;;;;;;;7.90;2.70;;;14.80;99.90;;;;;;5033416;28;20253;-80
2022/09/26 03:32:11;;;;;;;5.83;1.87;;;14.80;99.90;;;;;;5033984;28;20191;-77
2022/09/26 03:34:38;;;;;;;7.53;2.40;;;14.70;99.90;;;;;;5033496;28;20201;-78
2022/09/26 03:37:06;;;;;;;9.20;2.33;;;14.60;99.90;;;;;;5032990;28;20197;-77
2022/09/26 03:39:34;;;;;;;6.40;2.27;;;14.60;99.90;;;;;;5033862;28;20210;-80
2022/09/26 03:42:01;;;;;;;6.27;2.20;;;14.50;99.90;;;;;;5044051;28;20297;-79
2022/09/26 03:44:28;;;;;;;2.63;1.47;;;14.50;99.90;;;;;;5053011;28;20202;-81
2022/09/26 03:46:55;;;;;;;3.57;1.60;;;14.40;99.90;;;;;;5053445;28;20260;-82
2022/09/26 03:49:22;;;;;;;6.40;1.60;;;14.40;99.90;;;;;;5038068;28;20289;-80
2022/09/26 03:51:48;;;;;;;6.27;1.87;;;14.30;99.90;;;;;;5033588;28;20205;-77
2022/09/26 03:54:16;;;;;;;7.50;1.73;;;14.20;99.90;;;;;;5033538;28;20210;-81
2022/09/26 03:56:44;;;;;;;4.27;1.37;;;14.20;99.90;;;;;;5033736;28;20643;-81
2022/09/26 03:59:11;;;;;;;5.27;1.80;;;14.10;99.90;;;;;;5032576;28;20270;-77
2022/09/26 04:01:38;;;;;;;5.50;1.80;;;14.10;99.90;;;;;;5033641;28;20301;-80
2022/09/26 04:04:06;;;;;;;7.07;1.97;;;14.10;99.90;;;;;;5033182;28;20305;-79
2022/09/26 04:06:33;;;;;;;7.60;2.60;;;14.10;99.90;;;;;;5039838;28;20305;-77
2022/09/26 04:09:00;;;;;;;8.80;2.97;;;14.00;99.90;;;;;;5053812;28;20312;-85
2022/09/26 04:11:27;;;;;;;10.47;2.70;;;14.00;99.90;;;;;;5052965;28;20276;-82
2022/09/26 04:13:55;;;;;;;9.73;2.33;;;14.00;99.90;;;;;;5053269;28;20277;-87
2022/09/26 04:16:22;;;;;;;10.30;2.60;;;14.00;99.90;;;;;;5052648;28;20502;-82
2022/09/26 04:18:50;;;;;;;3.63;1.77;;;13.90;99.90;;;;;;5052583;28;20221;-79
2022/09/26 04:21:17;;;;;;;5.77;1.93;;;13.90;99.90;;;;;;5053643;28;20220;-89
2022/09/26 04:23:44;;;;;;;8.23;2.80;;;13.90;99.90;;;;;;5054213;28;20292;-89
2022/09/26 04:26:14;;;;;;;7.57;2.50;;;13.90;99.90;;;;;;5052142;28;20201;-87
2022/09/26 04:28:41;;;;;;;10.37;2.37;;;13.80;99.90;;;;;;5054139;28;20230;-85
2022/09/26 04:31:10;;;;;;;3.93;1.70;;;13.70;99.90;;;;;;5053974;28;20312;-88
2022/09/26 04:33:39;;;;;;;7.17;1.70;;;13.60;99.90;;;;;;5054919;28;20198;-87
2022/09/26 04:36:07;;;;;;;2.87;1.60;;;13.60;99.90;;;;;;5054808;28;20200;-89
2022/09/26 04:38:34;;;;;;;3.17;1.37;;;13.50;99.90;;;;;;5054431;28;20225;-87
2022/09/26 04:41:05;;;;;;;3.93;1.60;;;13.40;99.90;;;;;;5054357;28;20210;-80
2022/09/26 04:43:32;;;;;;;5.97;2.03;;;13.30;99.90;;;;;;5054570;28;20194;-87
2022/09/26 04:45:59;;;;;;;6.53;1.97;;;13.30;99.90;;;;;;5054316;28;20201;-86
2022/09/26 04:48:27;;;;;;;3.40;1.50;;;13.30;99.90;;;;;;5054254;28;20225;-90
2022/09/26 04:50:55;;;;;;;5.40;1.90;;;13.20;99.90;;;;;;5054057;28;20759;-84
2022/09/26 04:53:22;;;;;;;2.87;1.80;;;13.10;99.90;;;;;;5054532;28;20201;-86
2022/09/26 04:55:49;;;;;;;4.60;2.10;;;13.10;99.90;;;;;;5054389;28;20232;-85
2022/09/26 04:58:17;;;;;;;4.20;1.70;;;13.10;99.90;;;;;;5053855;28;20194;-84
2022/09/26 05:00:48;;;;;;;3.87;1.60;;;13.00;99.90;;;;;;5053252;28;20990;-86
2022/09/26 05:03:16;;;;;;;4.57;1.70;;;13.00;99.90;;;;;;5054170;28;20590;-84
2022/09/26 05:05:47;;;;;;;7.10;2.13;;;13.00;99.90;;;;;;5054256;28;20281;-86
2022/09/26 05:08:14;;;;;;;7.77;1.87;;;12.90;99.90;;;;;;5054001;28;20232;-85
2022/09/26 05:10:41;;;;;;;3.47;1.63;;;12.90;99.90;;;;;;5051762;28;20212;-87
2022/09/26 05:13:08;;;;;;;4.60;1.97;;;13.00;99.90;;;;;;5033895;28;20209;-84
2022/09/26 05:15:38;;;;;;;5.90;2.10;;;13.00;99.90;;;;;;5034110;28;20273;-84
2022/09/26 05:18:07;;;;;;;7.27;2.30;;;12.90;99.90;;;;;;5034069;28;20663;-89
2022/09/26 05:20:34;;;;;;;7.60;2.17;;;12.90;99.90;;;;;;5046625;28;20213;-82
2022/09/26 05:23:04;;;;;;;5.60;2.23;;;12.90;99.90;;;;;;5054057;28;20229;-88
2022/09/26 05:28:21;;;;;;;6.47;1.97;;;12.90;99.90;;;;;;5069443;22;20688;-85
2022/09/26 05:30:50;;;;;;;8.10;2.57;;;12.90;99.90;;;;;;5033681;28;20218;-84
2022/09/26 05:33:17;;;;;;;7.93;2.00;;;12.90;99.90;;;;;;5033485;28;20214;-84
2022/09/26 05:35:43;;;;;;;3.73;1.97;;;12.90;99.90;;;;;;5033799;28;20199;-87
2022/09/26 05:38:12;;;;;;;4.73;2.30;;;12.90;99.90;;;;;;5043182;28;20288;-84
2022/09/26 05:40:55;;;;;;;9.07;2.13;;;12.90;99.90;;;;;;5057175;28;20204;-87
2022/09/26 05:43:22;;;;;;;7.87;2.27;;;12.80;99.90;;;;;;5039622;28;20203;-82
2022/09/26 05:45:50;;;;;;;5.57;2.10;;;12.80;99.90;;;;;;5036406;28;20205;-82
2022/09/26 05:48:17;;;;;;;7.37;1.90;;;12.80;99.90;;;;;;5035704;28;20341;-84
2022/09/26 05:50:43;;;;;;;5.37;2.00;;;12.80;99.90;;;;;;5050713;28;20244;-83
2022/09/26 05:53:12;;;;;;;7.37;2.23;;;12.80;99.90;;;;;;5056867;28;20205;-82
2022/09/26 05:55:39;;;;;;;6.63;2.03;;;12.80;99.90;;;;;;5042311;28;20293;-79
2022/09/26 05:58:06;;;;;;;8.03;1.97;;;12.90;99.90;;;;;;5036545;28;20195;-84
2022/09/26 06:00:34;;;;;;;5.00;2.20;;;12.90;99.90;;;;;;5034698;28;20206;-77
2022/09/26 06:03:02;;;;;;;6.33;2.00;;;12.90;99.90;;;;;;5035708;28;20209;-78
2022/09/26 06:05:31;;;;;;;8.33;2.27;;;12.90;99.90;;;;;;5034296;28;20214;-77
2022/09/26 06:08:00;;;;;;;6.50;2.23;;;12.90;99.90;;;;;;5034886;28;20307;-78
2022/09/26 06:10:29;;;;;;;6.77;2.10;;;12.90;99.90;;;;;;5034918;28;20203;-77
2022/09/26 06:13:01;;;;;;;8.53;2.17;;;12.90;99.90;;;;;;5033867;28;20286;-77
2022/09/26 06:15:28;;;;;;;9.60;2.60;;;13.00;99.90;;;;;;5034197;28;20610;-76
2022/09/26 06:17:59;;;;;;;4.90;2.00;;;13.00;99.90;;;;;;5034269;28;20194;-76
2022/09/26 06:20:26;;;;;;;5.33;1.97;;;12.90;99.90;;;;;;5035064;28;20214;-77
2022/09/26 06:22:54;;;;;;;5.03;2.03;;;12.90;99.90;;;;;;5034055;28;20547;-78
2022/09/26 06:25:22;;;;;;;8.07;2.57;;;12.90;99.90;;;;;;5034467;28;20297;-78
2022/09/26 06:27:54;;;;;;;8.10;2.20;;;13.00;99.90;;;;;;5033784;28;20234;-78
2022/09/26 06:30:22;;;;;;;5.27;2.07;;;13.00;99.90;;;;;;5034127;28;20285;-77
2022/09/26 06:32:51;;;;;;;5.77;2.47;;;13.00;99.90;;;;;;5033903;28;20206;-78
2022/09/26 06:35:18;;;;;;;4.10;2.23;;;12.90;99.90;;;;;;5037535;28;20468;-78
2022/09/26 06:37:45;;;;;;;4.00;1.83;;;12.90;99.90;;;;;;5054357;28;20244;-77
2022/09/26 06:40:12;;;;;;;5.07;2.50;;;12.90;99.90;;;;;;5054137;28;20217;-83
2022/09/26 06:42:39;;;;;;;5.77;2.00;;;12.80;99.90;;;;;;5048039;28;20229;-81
2022/09/26 06:45:10;;;;;;;3.90;1.93;;;12.80;99.90;;;;;;5034810;28;20297;-82
2022/09/26 06:47:37;;;;;;;6.57;2.50;;;12.80;99.90;;;;;;5034660;28;20467;-81
2022/09/26 06:50:04;;;;;;;7.67;2.07;;;12.90;99.90;;;;;;5034197;28;20202;-81
2022/09/26 06:52:33;;;;;;;5.93;2.30;;;12.90;99.90;;;;;;5034835;28;20655;-82
2022/09/26 06:55:02;;;;;;;8.43;2.70;;;12.80;99.90;;;;;;5034218;28;20206;-78
2022/09/26 06:57:29;;;;;;;5.97;1.90;;;12.90;99.90;;;;;;5034174;28;20207;-82
2022/09/26 06:59:57;;;;;;;7.07;2.17;;;12.90;99.90;;;;;;5035292;28;20755;-79
2022/09/26 07:02:26;;;;;;;6.50;2.13;;;12.90;99.90;;;;;;5034425;28;20217;-81
2022/09/26 07:04:53;;;;;;;4.63;2.27;;;12.80;99.90;;;;;;5042147;28;20670;-83
2022/09/26 07:07:20;;;;;;;8.23;2.40;;;12.80;99.90;;;;;;5044931;28;20308;-80
2022/09/26 07:09:47;;;;;;;5.30;2.20;;;12.80;99.90;;;;;;5040320;28;20289;-78
2022/09/26 07:12:14;;;;;;;6.63;1.97;;;12.80;99.90;;;;;;5045772;28;20209;-80
2022/09/26 07:14:42;;;;;;;8.87;2.30;;;12.80;99.90;;;;;;5056924;28;20204;-79
2022/09/26 07:17:14;;;;;;;6.00;2.17;;;12.80;99.90;;;;;;5052824;28;20195;-80
2022/09/26 07:19:42;;;;;;;8.00;2.47;;;12.80;99.90;;;;;;5058767;28;20635;-87
2022/09/26 07:22:10;;;;;;;8.37;2.40;;;12.80;99.90;;;;;;5063466;28;20510;-89
2022/09/26 07:24:37;;;;;;;6.23;2.00;;;12.80;99.90;;;;;;5069461;28;20201;-91
2022/09/26 07:27:04;;;;;;;6.00;2.50;;;12.70;99.90;;;;;;5050715;28;20291;-85
2022/09/26 07:29:31;;;;;;;3.80;2.20;;;12.70;99.90;;;;;;5068166;28;20583;-83
2022/09/26 07:32:13;;;;;;;6.13;2.90;;;12.70;99.90;;;;;;5021532;28;20515;-90
2022/09/26 07:34:42;;;;;;;6.30;2.70;;;12.70;99.90;;;;;;5048835;28;20200;-80
2022/09/26 07:37:09;;;;;;;5.47;2.50;;;12.70;99.90;;;;;;5043154;28;20210;-77
2022/09/26 07:39:36;;;;;;;8.47;3.60;;;12.60;99.90;;;;;;5047376;28;20210;-78
2022/09/26 07:42:04;;;;;;;9.47;4.53;;;12.60;99.90;;;;;;5046146;28;20248;-87
2022/09/26 07:44:31;;;;;;;5.70;3.37;;;12.60;99.90;;;;;;5048231;28;20292;-91
2022/09/26 07:52:30;;;;;;;6.93;2.70;;;12.50;99.90;;;;;;5026399;28;20615;-85
2022/09/26 07:54:57;;;;;;;6.50;3.10;;;12.50;99.90;;;;;;5030651;28;20191;-87
2022/09/26 07:57:24;;;;;;;7.10;3.20;;;12.50;99.90;;;;;;5027995;28;20374;-87
2022/09/26 07:59:53;;;;;;;8.27;3.77;;;12.50;99.90;;;;;;5025506;28;20725;-86
2022/09/26 08:02:23;;;;;;;6.40;3.47;;;12.50;99.90;;;;;;5034913;28;20210;-84
2022/09/26 08:04:53;;;;;;;6.47;3.10;;;12.40;99.90;;;;;;5043925;28;20213;-82
2022/09/26 08:07:20;;;;;;;5.23;3.10;;;12.40;99.90;;;;;;5047085;28;20202;-83
2022/09/26 08:09:47;;;;;;;6.27;3.13;;;12.40;99.90;;;;;;5029795;28;20211;-82
2022/09/26 08:12:14;;;;;;;6.03;3.13;;;12.40;99.90;;;;;;5027345;28;20257;-82
2022/09/26 08:14:41;;;;;;;10.93;3.57;;;12.40;99.90;;;;;;5027456;28;20232;-80
2022/09/26 08:17:08;;;;;;;5.87;3.13;;;12.40;99.90;;;;;;5027092;28;20987;-81
2022/09/26 08:19:35;;;;;;;7.57;3.50;;;12.40;99.90;;;;;;5025791;28;20211;-83
2022/09/26 08:22:06;;;;;;;4.90;3.30;;;12.40;99.90;;;;;;5024778;28;20193;-80
2022/09/26 08:24:33;;;;;;;6.30;3.90;;;12.40;99.90;;;;;;5025427;28;20276;-85
2022/09/26 08:27:00;;;;;;;4.87;3.43;;;12.40;99.90;;;;;;5045558;28;20238;-82
2022/09/26 08:29:27;;;;;;;8.10;3.57;;;12.50;99.90;;;;;;5046082;28;20673;-82
2022/09/26 08:31:53;;;;;;;6.37;3.63;;;12.50;99.90;;;;;;5005634;28;20227;-81
2022/09/26 08:34:20;;;;;;;6.33;3.90;;;12.50;99.90;;;;;;4972162;28;20244;-84
2022/09/26 08:36:52;;;;;;;9.73;3.40;;;12.50;99.90;;;;;;4968615;28;20295;-82
2022/09/26 08:39:21;;;;;;;6.67;3.87;;;12.50;99.90;;;;;;4968030;28;20665;-83
2022/09/26 08:42:00;;;;;;;6.20;3.77;;;12.50;99.90;;;;;;4976840;28;20211;-84
2022/09/26 08:44:42;;;;;;;8.77;3.90;;;12.50;99.90;;;;;;4989519;28;20202;-84
2022/09/26 08:47:17;;;;;;;6.73;3.70;;;12.60;99.90;;;;;;4970198;28;20243;-82
2022/09/26 08:49:58;;;;;;;4.60;3.73;;;12.60;99.90;;;;;;4969521;28;20240;-84
2022/09/26 08:52:30;;;;;;;6.47;4.20;;;12.60;99.90;;;;;;4972616;28;20290;-82
2022/09/26 08:55:04;;;;;;;7.13;3.97;;;12.60;99.90;;;;;;4980111;28;20200;-84
2022/09/26 08:57:38;;;;;;;6.73;3.80;;;12.60;99.90;;;;;;4989432;28;20200;-83
2022/09/26 09:00:14;;;;;;;5.57;4.50;;;12.60;99.90;;;;;;4990255;28;20223;-78
2022/09/26 09:02:49;;;;;;;4.67;3.90;;;12.60;99.90;;;;;;4987944;28;20222;-82
2022/09/26 09:05:20;;;;;;;7.67;4.13;;;12.60;99.90;;;;;;4989512;28;20196;-83
2022/09/26 09:07:50;;;;;;;5.20;3.53;;;12.60;99.90;;;;;;4989957;28;20233;-83
2022/09/26 09:10:25;;;;;;;6.03;3.87;;;12.60;99.90;;;;;;4988941;28;20783;-81
2022/09/26 09:12:58;;;;;;;6.30;4.10;;;12.60;99.90;;;;;;4989421;28;20666;-80
2022/09/26 09:15:36;;;;;;;5.30;4.00;;;12.60;99.90;;;;;;4992734;28;20290;-82
2022/09/26 09:18:18;;;;;;;5.00;3.20;;;12.60;99.90;;;;;;4993412;28;20210;-82
2022/09/26 09:20:56;;;;;;;4.20;3.30;;;12.60;99.90;;;;;;4985426;28;20196;-79
2022/09/26 09:23:39;;;;;;;4.13;3.40;;;12.60;99.90;;;;;;4968887;28;20387;-76
2022/09/26 09:26:13;;;;;;;3.20;2.90;;;12.60;99.90;;;;;;4968415;28;20339;-83
2022/09/26 09:29:03;;;;;;;3.23;2.30;;;12.60;99.90;;;;;;4967543;28;20240;-76
2022/09/26 09:31:37;;;;;;;6.43;2.60;;;12.60;99.90;;;;;;4967952;28;20251;-75
2022/09/26 09:34:06;;;;;;;7.83;2.80;;;12.70;99.90;;;;;;4967045;28;20601;-75
2022/09/26 09:36:39;;;;;;;7.17;2.93;;;12.80;99.90;;;;;;4972753;28;20941;-74
2022/09/26 09:39:09;;;;;;;3.27;2.60;;;12.80;99.90;;;;;;4974785;28;20206;-76
2022/09/26 09:41:44;;;;;;;3.70;2.73;;;12.90;99.90;;;;;;4978535;28;20216;-76
2022/09/26 09:44:24;;;;;;;7.83;2.90;;;12.90;99.90;;;;;;4986993;28;20310;-74
2022/09/26 09:46:51;;;;;;;4.80;3.00;;;13.00;99.90;;;;;;4974504;28;20362;-75
2022/09/26 09:49:21;;;;;;;4.97;2.57;;;13.00;99.90;;;;;;4967084;28;20228;-76
2022/09/26 09:52:04;;;;;;;6.60;2.57;;;13.10;99.90;;;;;;4985787;28;20212;-76
2022/09/26 09:54:46;;;;;;;6.23;2.57;;;13.20;99.90;;;;;;4976508;28;20208;-75
2022/09/26 09:57:35;;;;;;;6.50;2.13;;;13.30;99.90;;;;;;4977217;28;20222;-78
2022/09/26 10:00:10;;;;;;;10.13;1.87;;;13.60;99.90;;;;;;4994197;28;20257;-76
2022/09/26 10:02:45;;;;;;;4.70;1.93;;;13.80;99.90;;;;;;4971689;28;20222;-73
2022/09/26 10:05:23;;;;;;;13.10;2.70;;;13.90;99.90;;;;;;4971262;28;20203;-75
2022/09/26 10:07:56;;;;;;;6.57;2.27;;;14.00;99.90;;;;;;4989012;28;20208;-84
2022/09/26 10:10:31;;;;;;;8.33;2.50;;;14.10;99.90;;;;;;4984738;28;20211;-79
2022/09/26 10:12:59;;;;;;;10.07;2.77;;;14.20;99.90;;;;;;4974939;28;20590;-85
2022/09/26 10:15:26;;;;;;;8.93;2.47;;;14.30;99.90;;;;;;4984678;28;20212;-87
2022/09/26 10:18:04;;;;;;;5.43;1.80;;;14.30;99.90;;;;;;4979862;28;20207;-83
2022/09/26 10:20:40;;;;;;;10.33;2.20;;;14.40;99.90;;;;;;4992436;28;20564;-85
2022/09/26 10:23:20;;;;;;;8.97;2.30;;;14.40;99.90;;;;;;4979792;28;20270;-83
2022/09/26 10:25:48;;;;;;;8.00;2.20;;;14.40;99.90;;;;;;4990290;28;20231;-80
2022/09/26 10:28:29;;;;;;;10.63;2.30;;;14.40;99.90;;;;;;4988918;28;20247;-81
2022/09/26 10:31:02;;;;;;;8.60;2.00;;;14.40;99.90;;;;;;4989970;28;20278;-78
2022/09/26 10:33:33;;;;;;;9.10;2.23;;;14.40;99.90;;;;;;4987141;28;20212;-78
2022/09/26 10:36:08;;;;;;;8.97;2.97;;;14.40;99.90;;;;;;4986701;28;20195;-82
2022/09/26 10:40:43;;;;;;;9.43;2.77;;;14.50;99.90;;;;;;4985578;28;20203;-76
2022/09/26 10:41:23;;;;;;;9.13;2.17;;;14.50;99.90;;;;;;4980767;28;20203;-75
2022/09/26 10:43:55;;;;;;;7.57;2.17;;;14.70;99.90;;;;;;4987884;28;20211;-78
2022/09/26 10:46:23;;;;;;;7.77;2.50;;;14.70;99.90;;;;;;4986239;28;20199;-76
2022/09/26 10:48:52;;;;;;;10.20;2.37;;;14.80;99.90;;;;;;4981261;28;20315;-78
2022/09/26 10:51:23;;;;;;;8.27;2.83;;;14.80;99.90;;;;;;4983581;28;20218;-75
2022/09/26 10:53:54;;;;;;;9.63;2.37;;;14.90;99.90;;;;;;4986508;28;20211;-77
2022/09/26 10:56:25;;;;;;;6.78;1.98;;;15.00;99.90;;;;;;4978395;28;20705;-82
2022/09/26 10:58:58;;;;;;;9.43;2.20;;;15.10;99.90;;;;;;4978169;28;20267;-77
2022/09/26 11:01:28;;;;;;;12.85;2.78;;;15.20;99.90;;;;;;4971111;28;20640;-77
2022/09/26 11:04:00;;;;;;;7.47;2.30;;;15.20;99.90;;;;;;4988487;28;20211;-81
2022/09/26 11:06:31;;;;;;;12.70;3.47;;;15.20;99.90;;;;;;4978698;28;20231;-79
2022/09/26 11:09:02;;;;;;;11.30;2.73;;;15.20;99.90;;;;;;4989320;28;20230;-83
2022/09/26 11:11:34;;;;;;;11.40;2.73;;;15.20;99.90;;;;;;4983361;28;20530;-80
2022/09/26 11:14:06;;;;;;;8.73;2.87;;;15.20;99.90;;;;;;4967721;28;20209;-78
2022/09/26 11:16:52;;;;;;;9.93;3.10;;;15.20;99.90;;;;;;4990272;28;20219;-86
2022/09/26 11:19:32;;;;;;;8.98;2.40;;;15.30;99.90;;;;;;4990053;28;20671;-85
2022/09/26 11:22:05;;;;;;;8.00;2.37;;;15.30;99.90;;;;;;4979996;28;20211;-80
2022/09/26 11:24:44;;;;;;;9.95;2.67;;;15.20;99.90;;;;;;4986481;28;20229;-77
2022/09/26 11:27:19;;;;;;;6.63;2.53;;;15.20;99.90;;;;;;4985400;28;20310;-79
2022/09/26 11:29:54;;;;;;;11.35;2.70;;;15.10;99.90;;;;;;4970273;28;20235;-77
2022/09/26 11:32:28;;;;;;;14.17;3.13;;;15.10;99.90;;;;;;4986092;28;20235;-82
2022/09/26 11:35:01;;;;;;;8.87;2.97;;;15.20;99.90;;;;;;4981956;28;20322;-82
2022/09/26 11:38:04;;;;;;;8.70;2.88;;;15.20;99.90;;;;;;4985521;28;20230;-84
2022/09/26 11:40:54;;;;;;;10.87;2.87;;;15.20;99.90;;;;;;4967533;28;20573;-79
2022/09/26 11:43:45;;;;;;;15.07;3.73;;;15.20;99.90;;;;;;4967900;28;20212;-78
2022/09/26 11:46:35;;;;;;;10.80;2.93;;;15.20;99.90;;;;;;4970793;28;20314;-84
2022/09/26 11:49:29;;;;;;;7.43;2.27;;;15.30;99.90;;;;;;4987167;28;20242;-88
2022/09/26 11:52:08;;;;;;;14.00;2.67;;;15.30;99.90;;;;;;4971636;28;20590;-88
2022/09/26 11:54:57;;;;;;;10.20;3.10;;;15.30;99.90;;;;;;4972683;28;20189;-89
2022/09/26 11:57:37;;;;;;;9.07;2.40;;;15.40;99.90;;;;;;4972284;28;20215;-87
2022/09/26 12:00:11;;;;;;;9.20;3.23;;;15.40;99.90;;;;;;4972511;28;20489;-82
2022/09/26 12:02:56;;;;;;;8.77;2.43;;;15.30;99.90;;;;;;4968383;28;20196;-85
2022/09/26 12:05:35;;;;;;;12.13;3.27;;;15.30;99.90;;;;;;4971858;28;20554;-88
2022/09/26 12:08:19;;;;;;;8.97;3.03;;;15.30;99.90;;;;;;4974531;28;20212;-83
2022/09/26 12:10:55;;;;;;;15.18;4.05;;;15.30;99.90;;;;;;4990369;28;20588;-85
2022/09/26 12:13:34;;;;;;;8.93;2.97;;;15.30;99.90;;;;;;5006025;28;20249;-87
2022/09/26 12:16:10;;;;;;;9.30;2.60;;;15.30;99.90;;;;;;5010134;28;20199;-86
2022/09/26 12:18:49;;;;;;;11.83;3.23;;;15.30;99.90;;;;;;5009860;28;20603;-89
2022/09/26 12:21:31;;;;;;;17.10;4.40;;;15.20;99.90;;;;;;4997776;28;20330;-89
2022/09/26 12:24:05;;;;;;;13.73;2.90;;;15.20;99.90;;;;;;4988528;28;20207;-88
2022/09/26 12:26:43;;;;;;;11.53;3.17;;;15.20;99.90;;;;;;4990103;28;20184;-90
2022/09/26 12:29:32;;;;;;;17.70;4.10;;;15.20;99.90;;;;;;4978857;28;20315;-84
2022/09/26 12:32:31;;;;;;;12.73;3.57;;;15.20;99.90;;;;;;4988057;28;20295;-87
2022/09/26 12:35:36;;;;;;;12.05;2.92;;;15.20;99.90;;;;;;4982603;28;20204;-85
2022/09/26 12:38:27;;;;;;;14.33;3.40;;;15.20;99.90;;;;;;4989291;28;20701;-83
2022/09/26 12:41:05;;;;;;;18.40;3.85;;;15.30;99.90;;;;;;4983590;28;20219;-84
2022/09/26 12:43:59;;;;;;;12.45;3.53;;;15.30;99.90;;;;;;4976846;28;20212;-78
2022/09/26 12:46:58;;;;;;;11.10;2.87;;;15.30;99.90;;;;;;4968337;28;20189;-82
2022/09/26 12:49:46;;;;;;;11.82;3.25;;;15.40;99.90;;;;;;4966770;28;20994;-79
2022/09/26 12:52:25;;;;;;;9.93;3.10;;;15.40;99.90;;;;;;4968678;28;20228;-79
2022/09/26 12:55:06;;;;;;;15.07;4.03;;;15.40;99.90;;;;;;4969965;28;20200;-82
2022/09/26 12:57:40;;;;;;;14.87;3.37;;;15.50;99.90;;;;;;4970208;28;20200;-79
2022/09/26 13:00:19;;;;;;;12.32;3.42;;;15.50;99.90;;;;;;4976874;28;20204;-78
2022/09/26 13:03:34;;;;;;;14.68;3.38;;;15.60;99.90;;;;;;4979671;28;20208;-78
2022/09/26 13:06:28;;;;;;;13.15;3.08;;;15.70;99.90;;;;;;4922819;28;20208;-78
2022/09/26 13:09:06;;;;;;;15.65;3.25;;;15.70;99.90;;;;;;4969627;28;20789;-79
2022/09/26 13:11:43;;;;;;;14.83;3.73;;;15.70;99.90;;;;;;4968732;28;20191;-79
2022/09/26 13:14:26;;;;;;;19.83;3.55;;;15.60;99.90;;;;;;4976023;28;20233;-80
2022/09/26 13:17:08;;;;;;;8.73;2.67;;;15.60;99.90;;;;;;4987500;28;20238;-85
2022/09/26 13:19:39;;;;;;;12.77;3.30;;;15.50;99.90;;;;;;4988858;28;20203;-84
2022/09/26 13:22:23;;;;;;;19.92;4.03;;;15.50;99.90;;;;;;4988256;28;20211;-84
2022/09/26 13:24:55;;;;;;;13.10;2.73;;;15.60;99.90;;;;;;4991908;28;20295;-84